createdAt,value
2019-01-29T00:01:53.492Z,6.78
2019-01-29T00:04:21.576Z,4.90
2019-01-29T00:06:49.643Z,6.17
2019-01-29T00:09:17.704Z,6.20
2019-01-29T00:11:45.723Z,6.85
2019-01-29T00:14:13.772Z,8.50
2019-01-29T00:16:41.831Z,6.87
2019-01-29T00:19:10.015Z,5.90
2019-01-29T00:21:38.016Z,8.45
2019-01-29T00:24:06.035Z,5.30
2019-01-29T00:26:34.019Z,6.40
2019-01-29T00:29:02.081Z,8.03
2019-01-29T00:31:30.099Z,10.63
2019-01-29T00:33:58.179Z,8.00
2019-01-29T00:36:26.291Z,5.20
2019-01-29T00:38:54.303Z,7.47
2019-01-29T00:41:22.331Z,7.00
2019-01-29T00:43:50.339Z,8.90
2019-01-29T00:46:18.322Z,7.58
2019-01-29T00:48:46.332Z,8.45
2019-01-29T00:51:14.358Z,8.20
2019-01-29T00:53:42.374Z,3.62
2019-01-29T00:56:10.448Z,6.37
2019-01-29T00:58:38.570Z,4.42
2019-01-29T01:01:06.726Z,6.90
2019-01-29T01:03:34.814Z,6.28
2019-01-29T01:06:02.859Z,3.87
2019-01-29T01:08:30.980Z,6.60
2019-01-29T01:10:58.996Z,5.65
2019-01-29T01:13:26.988Z,6.03
2019-01-29T01:15:55.473Z,3.15
2019-01-29T01:18:23.483Z,7.40
2019-01-29T01:20:55.437Z,7.00
2019-01-29T01:23:23.554Z,7.70
2019-01-29T01:25:51.487Z,6.45
2019-01-29T01:28:19.483Z,5.28
2019-01-29T01:30:47.479Z,5.47
2019-01-29T01:33:15.508Z,5.62
2019-01-29T01:35:43.527Z,5.30
2019-01-29T01:38:12.749Z,4.87
2019-01-29T01:40:42.187Z,4.42
2019-01-29T01:43:10.210Z,3.70
2019-01-29T01:45:38.238Z,3.37
2019-01-29T01:48:06.263Z,4.72
2019-01-29T01:50:34.314Z,4.15
2019-01-29T01:53:02.313Z,4.08
2019-01-29T01:55:30.345Z,4.00
2019-01-29T01:57:58.396Z,3.25
2019-01-29T02:00:26.466Z,3.47
2019-01-29T02:02:54.390Z,2.85
2019-01-29T02:05:22.478Z,3.58
2019-01-29T02:07:50.578Z,4.00
2019-01-29T02:10:27.585Z,2.72
2019-01-29T02:12:55.656Z,3.33
2019-01-29T02:15:23.840Z,1.82
2019-01-29T02:17:51.878Z,3.08
2019-01-29T02:20:19.956Z,4.65
2019-01-29T02:22:48.011Z,3.50
2019-01-29T02:25:16.079Z,4.15
2019-01-29T02:27:44.087Z,3.50
2019-01-29T02:30:18.008Z,5.28
2019-01-29T02:32:46.126Z,2.60
2019-01-29T02:35:15.240Z,3.33
2019-01-29T02:37:43.254Z,3.90
2019-01-29T02:40:33.504Z,2.92
2019-01-29T02:43:01.603Z,3.50
2019-01-29T02:45:29.694Z,2.83
2019-01-29T02:47:57.826Z,2.98
2019-01-29T02:50:25.794Z,2.45
2019-01-29T02:52:53.976Z,2.87
2019-01-29T02:55:22.071Z,3.08
2019-01-29T02:57:50.110Z,1.82
2019-01-29T03:00:20.666Z,2.33
2019-01-29T03:02:48.687Z,2.33
2019-01-29T03:05:16.694Z,2.40
2019-01-29T03:07:44.698Z,2.87
2019-01-29T03:10:14.146Z,2.45
2019-01-29T03:12:42.655Z,2.72
2019-01-29T03:15:13.811Z,2.00
2019-01-29T03:17:41.796Z,3.33
2019-01-29T03:20:10.606Z,2.52
2019-01-29T03:22:38.723Z,2.90
2019-01-29T03:25:07.771Z,3.20
2019-01-29T03:27:35.986Z,3.67
2019-01-29T03:30:04.091Z,2.37
2019-01-29T03:32:38.458Z,1.90
2019-01-29T03:35:06.895Z,2.77
2019-01-29T03:37:35.110Z,5.17
2019-01-29T03:40:03.143Z,4.47
2019-01-29T03:42:31.328Z,3.55
2019-01-29T03:44:59.367Z,3.27
2019-01-29T03:47:27.350Z,3.27
2019-01-29T03:49:55.455Z,3.42
2019-01-29T03:52:23.421Z,4.62
2019-01-29T03:54:51.440Z,2.55
2019-01-29T03:57:19.678Z,3.22
2019-01-29T03:59:47.862Z,4.05
2019-01-29T04:02:16.027Z,2.10
2019-01-29T04:04:43.996Z,3.25
2019-01-29T04:07:11.956Z,3.65
2019-01-29T04:09:39.957Z,3.27
2019-01-29T04:12:08.000Z,3.75
2019-01-29T04:14:35.991Z,4.05
2019-01-29T04:17:03.987Z,3.40
2019-01-29T04:19:32.021Z,3.05
2019-01-29T04:22:00.334Z,3.72
2019-01-29T04:24:28.311Z,4.05
2019-01-29T04:26:56.359Z,3.12
2019-01-29T04:29:24.310Z,3.55
2019-01-29T04:31:52.416Z,2.10
2019-01-29T04:34:20.493Z,3.02
2019-01-29T04:36:48.736Z,3.47
2019-01-29T04:39:16.741Z,2.47
2019-01-29T04:41:44.995Z,3.17
2019-01-29T04:44:13.031Z,2.58
2019-01-29T04:46:40.987Z,2.33
2019-01-29T04:49:08.991Z,4.00
2019-01-29T04:51:37.234Z,3.10
2019-01-29T04:54:05.360Z,3.33
2019-01-29T04:56:33.416Z,2.55
2019-01-29T04:59:01.725Z,2.60
2019-01-29T05:01:29.759Z,3.08
2019-01-29T05:03:57.823Z,3.35
2019-01-29T05:06:25.820Z,3.02
2019-01-29T05:08:53.808Z,2.50
2019-01-29T05:11:21.979Z,3.15
2019-01-29T05:13:50.014Z,3.30
2019-01-29T05:16:17.988Z,4.87
2019-01-29T05:18:46.126Z,3.98
2019-01-29T05:21:14.126Z,4.45
2019-01-29T05:23:42.203Z,5.40
2019-01-29T05:26:10.271Z,5.03
2019-01-29T05:28:38.385Z,5.67
2019-01-29T05:31:06.386Z,6.08
2019-01-29T05:33:34.448Z,6.92
2019-01-29T05:36:02.497Z,6.50
2019-01-29T05:38:30.517Z,6.28
2019-01-29T05:40:58.665Z,4.45
2019-01-29T05:43:26.700Z,4.55
2019-01-29T05:45:54.728Z,4.80
2019-01-29T05:48:23.046Z,5.03
2019-01-29T05:50:51.121Z,4.15
2019-01-29T05:53:19.204Z,2.05
2019-01-29T05:55:47.300Z,3.33
2019-01-29T05:58:15.333Z,3.22
2019-01-29T06:00:43.355Z,3.47
2019-01-29T06:03:11.521Z,3.08
2019-01-29T06:05:39.523Z,3.50
2019-01-29T06:08:07.653Z,3.15
2019-01-29T06:10:35.769Z,3.27
2019-01-29T06:13:04.027Z,3.20
2019-01-29T06:15:32.086Z,3.77
2019-01-29T06:18:00.176Z,2.92
2019-01-29T06:20:28.757Z,3.00
2019-01-29T06:22:56.810Z,2.77
2019-01-29T06:25:24.861Z,3.05
2019-01-29T06:27:52.968Z,2.80
2019-01-29T06:30:22.152Z,3.25
2019-01-29T06:32:50.204Z,3.47
2019-01-29T06:35:18.640Z,3.30
2019-01-29T06:37:46.796Z,3.75
2019-01-29T06:40:17.862Z,3.08
2019-01-29T06:42:46.081Z,3.50
2019-01-29T06:45:14.872Z,4.62
2019-01-29T06:47:42.941Z,4.65
2019-01-29T06:50:13.395Z,4.35
2019-01-29T06:52:41.457Z,3.40
2019-01-29T06:55:11.145Z,3.12
2019-01-29T06:57:39.607Z,4.12
2019-01-29T07:00:09.698Z,3.50
2019-01-29T07:02:37.745Z,3.72
2019-01-29T07:05:06.849Z,4.40
2019-01-29T07:07:34.974Z,3.58
2019-01-29T07:10:03.041Z,4.05
2019-01-29T07:12:31.068Z,4.50
2019-01-29T07:14:59.069Z,5.03
2019-01-29T07:17:31.018Z,2.10
2019-01-29T07:20:01.378Z,4.12
2019-01-29T07:22:29.363Z,4.85
2019-01-29T07:24:57.634Z,5.75
2019-01-29T07:27:25.844Z,5.47
2019-01-29T07:29:53.984Z,6.78
2019-01-29T07:32:22.160Z,5.45
2019-01-29T07:34:50.206Z,6.12
2019-01-29T07:37:22.177Z,6.83
2019-01-29T07:39:48.228Z,5.87
2019-01-29T07:42:16.242Z,5.20
2019-01-29T07:44:46.114Z,5.62
2019-01-29T07:47:14.159Z,6.10
2019-01-29T07:49:42.162Z,7.17
2019-01-29T07:52:10.190Z,6.75
2019-01-29T07:54:38.210Z,7.50
2019-01-29T07:57:06.405Z,6.92
2019-01-29T07:59:34.604Z,4.17
2019-01-29T08:02:02.751Z,7.47
2019-01-29T08:04:30.713Z,6.45
2019-01-29T08:06:58.820Z,6.15
2019-01-29T08:09:26.854Z,7.30
2019-01-29T08:11:54.957Z,5.60
2019-01-29T08:14:23.131Z,5.97
2019-01-29T08:16:51.205Z,6.37
2019-01-29T08:19:19.217Z,5.10
2019-01-29T08:21:47.347Z,5.95
2019-01-29T08:24:15.504Z,6.00
2019-01-29T08:26:43.687Z,6.67
2019-01-29T08:29:11.699Z,6.45
2019-01-29T08:31:39.775Z,7.50
2019-01-29T08:34:07.858Z,6.00
2019-01-29T08:36:35.958Z,6.17
2019-01-29T08:39:05.975Z,6.75
2019-01-29T08:41:34.097Z,7.70
2019-01-29T08:44:02.245Z,6.67
2019-01-29T08:46:30.368Z,7.95
2019-01-29T08:48:58.444Z,7.35
2019-01-29T08:51:26.406Z,8.18
2019-01-29T08:53:54.401Z,9.08
2019-01-29T08:56:22.514Z,7.62
2019-01-29T08:58:50.762Z,9.38
2019-01-29T09:01:18.786Z,11.12
2019-01-29T09:03:46.826Z,10.15
2019-01-29T09:06:15.005Z,8.35
2019-01-29T09:08:43.005Z,12.25
2019-01-29T09:11:11.107Z,10.58
2019-01-29T09:13:40.536Z,12.53
2019-01-29T09:16:08.659Z,13.85
2019-01-29T09:18:36.697Z,15.32
2019-01-29T09:21:04.947Z,14.95
2019-01-29T09:23:33.043Z,12.43
2019-01-29T09:26:01.186Z,11.18
2019-01-29T09:28:29.311Z,13.35
2019-01-29T09:30:57.341Z,13.43
2019-01-29T09:33:25.473Z,12.90
2019-01-29T09:35:53.655Z,11.90
2019-01-29T09:38:21.686Z,11.22
2019-01-29T09:40:49.879Z,12.85
2019-01-29T09:43:17.900Z,12.68
2019-01-29T09:45:46.048Z,12.53
2019-01-29T09:48:14.172Z,12.98
2019-01-29T09:50:42.238Z,17.23
2019-01-29T09:53:10.408Z,13.90
2019-01-29T09:55:38.522Z,15.53
2019-01-29T09:58:06.642Z,10.08
2019-01-29T10:00:36.628Z,15.50
2019-01-29T10:03:05.171Z,14.53
2019-01-29T10:05:33.238Z,15.83
2019-01-29T10:08:01.354Z,17.70
2019-01-29T10:10:29.389Z,16.25
2019-01-29T10:13:04.817Z,18.75
2019-01-29T10:15:34.025Z,17.40
2019-01-29T10:18:02.177Z,15.25
2019-01-29T10:20:30.369Z,18.82
2019-01-29T10:22:58.549Z,15.88
2019-01-29T10:25:26.683Z,14.30
2019-01-29T10:27:54.919Z,16.07
2019-01-29T10:30:23.994Z,16.42
2019-01-29T10:32:52.116Z,11.85
2019-01-29T10:35:20.419Z,15.28
2019-01-29T10:37:48.606Z,11.70
2019-01-29T10:40:18.741Z,11.18
2019-01-29T10:42:46.892Z,10.23
2019-01-29T10:45:16.315Z,10.00
2019-01-29T10:47:44.386Z,12.82
2019-01-29T10:50:15.102Z,12.07
2019-01-29T10:55:10.670Z,10.90
2019-01-29T10:57:38.756Z,9.98
2019-01-29T11:00:12.072Z,9.10
2019-01-29T11:02:39.642Z,9.78
2019-01-29T11:05:08.263Z,10.65
2019-01-29T11:07:36.378Z,11.15
2019-01-29T11:10:05.779Z,11.40
2019-01-29T11:12:34.083Z,9.98
2019-01-29T11:15:02.156Z,11.20
2019-01-29T11:17:30.285Z,10.70
2019-01-29T11:19:58.623Z,9.83
2019-01-29T11:22:26.708Z,9.23
2019-01-29T11:24:54.883Z,9.68
2019-01-29T11:27:23.005Z,10.13
2019-01-29T11:29:51.158Z,10.32
2019-01-29T11:34:54.345Z,8.13
2019-01-29T11:37:22.549Z,9.30
2019-01-29T11:39:50.632Z,9.55
2019-01-29T11:42:18.857Z,7.67
2019-01-29T11:44:46.929Z,8.00
2019-01-29T11:47:15.329Z,7.72
2019-01-29T11:49:43.422Z,7.33
2019-01-29T11:52:11.528Z,8.48
2019-01-29T11:54:39.589Z,8.00
2019-01-29T11:57:08.040Z,6.47
2019-01-29T11:59:36.118Z,7.50
2019-01-29T12:02:04.200Z,8.63
2019-01-29T12:04:32.256Z,8.18
2019-01-29T12:07:00.338Z,6.10
2019-01-29T12:09:28.355Z,5.92
2019-01-29T12:11:56.368Z,6.85
2019-01-29T12:14:24.476Z,7.85
2019-01-29T12:16:52.622Z,7.10
2019-01-29T12:19:20.644Z,7.33
2019-01-29T12:21:48.982Z,8.13
2019-01-29T12:24:17.070Z,7.67
2019-01-29T12:26:45.169Z,8.33
2019-01-29T12:29:13.389Z,7.47
2019-01-29T12:31:41.435Z,8.38
2019-01-29T12:34:09.545Z,8.35
2019-01-29T12:36:37.603Z,7.85
2019-01-29T12:39:08.330Z,7.37
2019-01-29T12:44:03.933Z,8.60
2019-01-29T12:46:32.111Z,7.67
2019-01-29T12:49:00.271Z,7.33
2019-01-29T12:51:41.753Z,7.17
2019-01-29T12:54:10.241Z,7.28
2019-01-29T12:56:38.461Z,8.73
2019-01-29T12:59:06.806Z,7.17
2019-01-29T13:01:35.022Z,8.43
2019-01-29T13:04:03.072Z,7.62
2019-01-29T13:06:34.879Z,7.72
2019-01-29T13:09:04.066Z,7.15
2019-01-29T13:11:32.118Z,6.62
2019-01-29T13:14:00.136Z,8.25
2019-01-29T13:16:28.360Z,7.22
2019-01-29T13:18:56.664Z,7.35
2019-01-29T13:21:24.829Z,8.05
2019-01-29T13:23:53.233Z,8.58
2019-01-29T13:26:29.653Z,7.42
2019-01-29T13:28:51.484Z,7.55
2019-01-29T13:31:19.788Z,7.22
2019-01-29T13:33:47.816Z,6.28
2019-01-29T13:36:15.921Z,7.33
2019-01-29T13:38:44.414Z,5.50
2019-01-29T13:41:12.646Z,5.67
2019-01-29T13:43:41.017Z,6.12
2019-01-29T13:46:09.551Z,7.15
2019-01-29T13:48:38.211Z,6.30
2019-01-29T13:51:06.750Z,6.72
2019-01-29T13:53:40.739Z,5.67
2019-01-29T13:56:11.412Z,7.10
2019-01-29T14:01:11.967Z,5.65
2019-01-29T14:03:41.697Z,5.85
2019-01-29T14:06:09.816Z,6.03
2019-01-29T14:08:37.985Z,5.12
2019-01-29T14:11:06.082Z,5.20
2019-01-29T14:13:34.775Z,5.03
2019-01-29T14:16:06.048Z,5.15
2019-01-29T14:18:34.246Z,4.85
2019-01-29T14:21:02.762Z,4.22
2019-01-29T14:23:31.059Z,4.30
2019-01-29T14:26:02.016Z,4.20
2019-01-29T14:28:30.186Z,4.42
2019-01-29T14:30:58.401Z,4.05
2019-01-29T14:33:26.853Z,3.67
2019-01-29T14:35:54.992Z,4.17
2019-01-29T14:39:01.352Z,3.90
2019-01-29T14:41:29.613Z,3.90
2019-01-29T14:43:59.432Z,3.75
2019-01-29T14:46:27.678Z,4.43
2019-01-29T14:48:55.903Z,5.35
2019-01-29T14:51:24.360Z,4.75
2019-01-29T14:53:52.909Z,4.50
2019-01-29T14:56:21.183Z,4.00
2019-01-29T14:58:49.368Z,4.10
2019-01-29T15:01:17.502Z,4.20
2019-01-29T15:03:46.176Z,5.60
2019-01-29T15:06:14.472Z,7.17
2019-01-29T15:08:42.937Z,7.87
2019-01-29T15:11:11.318Z,4.92
2019-01-29T15:13:40.109Z,4.00
2019-01-29T15:16:27.407Z,3.70
2019-01-29T15:19:00.698Z,4.00
2019-01-29T15:21:37.506Z,4.28
2019-01-29T15:23:59.045Z,3.35
2019-01-29T15:26:27.414Z,4.10
2019-01-29T15:28:55.710Z,5.45
2019-01-29T15:31:23.993Z,2.98
2019-01-29T15:33:53.062Z,3.52
2019-01-29T15:36:21.524Z,2.87
2019-01-29T15:38:51.748Z,3.10
2019-01-29T15:41:20.243Z,4.80
2019-01-29T15:43:49.719Z,2.95
2019-01-29T15:46:18.115Z,2.65
2019-01-29T15:48:51.394Z,2.70
2019-01-29T15:51:19.893Z,3.30
2019-01-29T15:53:48.179Z,4.12
2019-01-29T15:56:16.305Z,2.92
2019-01-29T15:58:44.825Z,3.20
2019-01-29T16:01:12.942Z,3.20
2019-01-29T16:03:41.516Z,2.65
2019-01-29T16:06:09.532Z,3.02
2019-01-29T16:08:37.849Z,2.75
2019-01-29T16:11:06.107Z,2.47
2019-01-29T16:13:34.443Z,2.98
2019-01-29T16:16:02.761Z,3.55
2019-01-29T16:18:32.133Z,5.67
2019-01-29T16:21:00.352Z,4.65
2019-01-29T16:23:28.431Z,2.62
2019-01-29T16:25:56.445Z,2.62
2019-01-29T16:28:24.500Z,2.70
2019-01-29T16:30:52.776Z,1.95
2019-01-29T16:33:20.844Z,2.50
2019-01-29T16:35:49.137Z,2.08
2019-01-29T16:38:17.321Z,1.98
2019-01-29T16:40:45.844Z,1.37
2019-01-29T16:43:14.290Z,1.90
2019-01-29T16:45:42.498Z,1.90
2019-01-29T16:48:10.572Z,1.77
2019-01-29T16:50:38.770Z,2.20
2019-01-29T16:53:07.255Z,1.72
2019-01-29T16:55:35.303Z,2.02
2019-01-29T16:58:03.645Z,1.85
2019-01-29T17:00:32.280Z,2.45
2019-01-29T17:03:00.519Z,2.15
2019-01-29T17:05:28.569Z,2.50
2019-01-29T17:07:56.663Z,2.85
2019-01-29T17:10:25.267Z,3.20
2019-01-29T17:12:53.401Z,2.50
2019-01-29T17:15:24.049Z,2.45
2019-01-29T17:20:22.099Z,3.37
2019-01-29T17:22:50.677Z,3.25
2019-01-29T17:25:19.135Z,2.30
2019-01-29T17:27:47.223Z,3.05
2019-01-29T17:30:19.256Z,3.60
2019-01-29T17:32:47.375Z,2.90
2019-01-29T17:35:15.532Z,4.28
2019-01-29T17:37:44.319Z,3.45
2019-01-29T17:40:12.974Z,3.30
2019-01-29T17:42:41.214Z,2.35
2019-01-29T17:45:11.048Z,2.90
2019-01-29T17:47:39.832Z,2.63
2019-01-29T17:50:12.717Z,3.22
2019-01-29T17:52:40.949Z,4.08
2019-01-29T17:55:10.674Z,5.15
2019-01-29T17:57:38.968Z,6.15
2019-01-29T18:00:09.418Z,6.42
2019-01-29T18:02:37.678Z,6.25
2019-01-29T18:05:07.095Z,9.10
2019-01-29T18:07:36.426Z,7.17
2019-01-29T18:10:06.307Z,8.48
2019-01-29T18:12:35.111Z,12.23
2019-01-29T18:15:04.456Z,27.05
2019-01-29T18:17:33.403Z,10.93
2019-01-29T18:20:02.249Z,18.92
2019-01-29T18:22:31.487Z,14.33
2019-01-29T18:25:00.541Z,14.47
2019-01-29T18:27:29.381Z,13.93
2019-01-29T18:29:57.594Z,12.70
2019-01-29T18:32:26.280Z,14.23
2019-01-29T18:34:54.711Z,11.33
2019-01-29T18:37:23.871Z,8.08
2019-01-29T18:39:53.549Z,8.23
2019-01-29T18:42:22.303Z,8.40
2019-01-29T18:44:51.814Z,9.08
2019-01-29T18:47:20.787Z,7.37
2019-01-29T18:49:49.781Z,7.97
2019-01-29T18:52:20.469Z,8.75
2019-01-29T18:54:49.114Z,6.85
2019-01-29T18:57:19.712Z,6.28
2019-01-29T18:59:49.167Z,6.72
2019-01-29T19:02:18.608Z,5.65
2019-01-29T19:04:47.965Z,5.37
2019-01-29T19:07:16.617Z,4.80
2019-01-29T19:09:45.703Z,5.40
2019-01-29T19:12:15.594Z,5.60
2019-01-29T19:14:45.087Z,5.17
2019-01-29T19:17:14.584Z,5.90
2019-01-29T19:19:44.308Z,5.62
2019-01-29T19:22:15.869Z,6.00
2019-01-29T19:24:44.862Z,5.55
2019-01-29T19:27:14.129Z,5.35
2019-01-29T19:29:42.694Z,5.65
2019-01-29T19:32:12.278Z,6.30
2019-01-29T19:34:41.656Z,5.60
2019-01-29T19:37:10.611Z,6.45
2019-01-29T19:39:39.814Z,5.08
2019-01-29T19:42:09.219Z,6.28
2019-01-29T19:44:39.089Z,7.15
2019-01-29T19:47:08.019Z,6.10
2019-01-29T19:49:37.396Z,7.35
2019-01-29T19:52:06.769Z,6.58
2019-01-29T19:57:12.639Z,7.75
2019-01-29T19:59:42.334Z,8.30
2019-01-29T20:02:11.644Z,7.95
2019-01-29T20:04:41.111Z,9.28
2019-01-29T20:07:10.226Z,9.25
2019-01-29T20:09:39.822Z,9.15
2019-01-29T20:12:28.225Z,9.03
2019-01-29T20:14:57.694Z,8.45
2019-01-29T20:17:26.600Z,10.03
2019-01-29T20:19:55.550Z,8.60
2019-01-29T20:22:24.554Z,9.50
2019-01-29T20:24:53.859Z,9.20
2019-01-29T20:27:23.664Z,13.25
2019-01-29T20:29:53.185Z,15.50
2019-01-29T20:32:52.942Z,13.65
2019-01-29T20:35:13.416Z,16.27
2019-01-29T20:37:42.224Z,17.07
2019-01-29T20:40:13.204Z,22.13
2019-01-29T20:42:42.312Z,20.32
2019-01-29T20:45:11.649Z,23.12
2019-01-29T20:47:40.242Z,16.70
2019-01-29T20:50:13.006Z,18.37
2019-01-29T20:52:42.713Z,10.10
2019-01-29T20:55:12.031Z,10.13
2019-01-29T20:57:40.712Z,12.13
2019-01-29T21:00:21.528Z,11.12
2019-01-29T21:05:18.148Z,13.05
2019-01-29T21:07:46.562Z,20.02
2019-01-29T21:10:17.586Z,23.57
2019-01-29T21:12:46.550Z,11.50
2019-01-29T21:15:17.258Z,12.53
2019-01-29T21:20:18.205Z,14.40
2019-01-29T21:22:46.994Z,11.55
2019-01-29T21:25:15.892Z,11.97
2019-01-29T21:27:44.740Z,17.05
2019-01-29T21:30:20.513Z,23.80
2019-01-29T21:32:48.922Z,19.67
2019-01-29T21:35:17.472Z,12.73
2019-01-29T21:37:46.017Z,14.03
2019-01-29T21:40:14.673Z,12.63
2019-01-29T21:42:43.237Z,7.97
2019-01-29T21:45:12.639Z,9.55
2019-01-29T21:47:41.725Z,9.08
2019-01-29T21:50:16.584Z,11.38
2019-01-29T21:52:44.759Z,10.55
2019-01-29T21:55:12.943Z,9.85
2019-01-29T21:57:41.221Z,11.53
2019-01-29T22:00:13.459Z,10.23
2019-01-29T22:02:41.670Z,8.80
2019-01-29T22:05:11.458Z,10.13
2019-01-29T22:07:39.609Z,9.93
2019-01-29T22:10:08.849Z,9.40
2019-01-29T22:12:37.497Z,8.18
2019-01-29T22:15:08.134Z,9.05
2019-01-29T22:17:36.466Z,10.38
2019-01-29T22:20:05.276Z,9.75
2019-01-29T22:22:33.404Z,7.92
2019-01-29T22:25:01.796Z,8.10
2019-01-29T22:27:29.864Z,10.15
2019-01-29T22:29:57.976Z,8.03
2019-01-29T22:32:26.118Z,8.45
2019-01-29T22:34:54.377Z,10.32
2019-01-29T22:37:22.413Z,8.88
2019-01-29T22:39:50.488Z,10.30
2019-01-29T22:42:20.672Z,7.05
2019-01-29T22:44:48.485Z,12.17
2019-01-29T22:47:16.515Z,9.85
2019-01-29T22:49:44.545Z,9.20
2019-01-29T22:52:12.605Z,7.70
2019-01-29T22:54:40.605Z,8.85
2019-01-29T22:57:08.651Z,9.10
2019-01-29T22:59:36.695Z,8.98
2019-01-29T23:02:04.742Z,12.07
2019-01-29T23:04:36.375Z,11.25
2019-01-29T23:07:28.094Z,14.20
2019-01-29T23:09:56.100Z,13.58
2019-01-29T23:12:24.126Z,10.80
2019-01-29T23:14:52.260Z,10.88
2019-01-29T23:17:20.415Z,10.53
2019-01-29T23:19:48.550Z,11.43
2019-01-29T23:22:16.622Z,9.63
2019-01-29T23:24:44.686Z,9.68
2019-01-29T23:27:12.766Z,8.70
2019-01-29T23:29:43.538Z,8.78
2019-01-29T23:32:10.800Z,9.10
2019-01-29T23:34:41.680Z,9.25
2019-01-29T23:37:09.759Z,7.90
2019-01-29T23:39:37.802Z,8.48
2019-01-29T23:42:05.918Z,6.83
2019-01-29T23:44:36.868Z,6.20
2019-01-29T23:47:03.846Z,7.17
2019-01-29T23:49:31.959Z,7.30
2019-01-29T23:51:59.997Z,6.20
2019-01-29T23:54:28.030Z,7.70
2019-01-29T23:56:56.049Z,6.30
2019-01-29T23:59:24.047Z,7.47
